Time;durP1;ratioP1;P1;durP2;ratioP2;P2;SDS_P1;SDS_P2;PMS_P1;PMS_P2;Temp;Humidity;BMP_temperature;BMP_pressure;BME280_temperature;BME280_humidity;BME280_pressure;Samples;Min_cycle;Max_cycle;Signal;HPM_P1;HPM_P2
2022/06/10 00:00:28;;;;;;;5.07;2.90;;;16.20;67.80;;;;;;5095963;28;20053;-70
2022/06/10 00:02:55;;;;;;;6.05;3.20;;;16.20;68.30;;;;;;5096057;28;20055;-70
2022/06/10 00:05:24;;;;;;;6.55;2.85;;;16.20;68.20;;;;;;5096049;28;20021;-70
2022/06/10 00:07:51;;;;;;;8.57;3.25;;;16.20;68.30;;;;;;5095981;28;20031;-70
2022/06/10 00:10:19;;;;;;;7.47;3.15;;;16.20;68.20;;;;;;5095973;28;20039;-70
2022/06/10 00:12:46;;;;;;;8.73;3.38;;;16.30;68.10;;;;;;5095910;28;20039;-70
2022/06/10 00:15:13;;;;;;;8.98;3.40;;;16.20;68.30;;;;;;5095836;28;20025;-70
2022/06/10 00:17:39;;;;;;;5.30;3.40;;;16.20;68.10;;;;;;5095750;28;20029;-70
2022/06/10 00:20:06;;;;;;;6.22;2.92;;;16.20;68.30;;;;;;5095779;28;20021;-70
2022/06/10 00:22:31;;;;;;;6.50;3.47;;;16.10;68.30;;;;;;5095585;28;20031;-70
2022/06/10 00:24:57;;;;;;;5.82;3.40;;;16.10;68.30;;;;;;5095694;28;20060;-70
2022/06/10 00:27:23;;;;;;;6.57;3.05;;;16.10;68.10;;;;;;5095656;28;20035;-70
2022/06/10 00:29:48;;;;;;;7.03;3.45;;;16.20;68.00;;;;;;5095533;28;20028;-70
2022/06/10 00:32:17;;;;;;;5.03;2.90;;;16.20;67.70;;;;;;5094569;28;20028;-70
2022/06/10 00:34:43;;;;;;;5.18;3.00;;;16.10;67.50;;;;;;5095490;28;20055;-70
2022/06/10 00:37:09;;;;;;;5.15;3.45;;;16.00;68.10;;;;;;5095391;28;20035;-70
2022/06/10 00:39:35;;;;;;;8.73;3.42;;;15.90;68.40;;;;;;5095397;28;20020;-70
2022/06/10 00:42:06;;;;;;;7.13;3.70;;;15.80;68.80;;;;;;5094502;28;20025;-70
2022/06/10 00:44:35;;;;;;;4.25;3.13;;;15.70;69.20;;;;;;5095372;28;20023;-70
2022/06/10 00:47:04;;;;;;;8.20;3.25;;;15.60;69.10;;;;;;5095279;28;20051;-70
2022/06/10 00:49:31;;;;;;;5.15;3.00;;;15.70;69.00;;;;;;5095214;28;20017;-70
2022/06/10 00:51:58;;;;;;;5.88;3.60;;;15.80;68.80;;;;;;5095232;28;20043;-71
2022/06/10 00:54:31;;;;;;;6.32;3.30;;;15.80;69.10;;;;;;5095136;28;20036;-70
2022/06/10 00:57:06;;;;;;;7.72;3.15;;;15.70;69.30;;;;;;5095025;28;20051;-70
2022/06/10 00:59:39;;;;;;;5.85;3.58;;;15.70;69.50;;;;;;5094868;28;20072;-70
2022/06/10 01:02:13;;;;;;;6.20;3.47;;;15.70;69.20;;;;;;5095088;28;20045;-70
2022/06/10 01:04:40;;;;;;;9.30;3.72;;;15.80;68.90;;;;;;5094963;28;20024;-70
2022/06/10 01:07:08;;;;;;;8.70;3.60;;;15.80;68.70;;;;;;5094910;28;20025;-70
2022/06/10 01:09:36;;;;;;;11.50;4.43;;;15.80;68.70;;;;;;5094817;28;20029;-70
2022/06/10 01:12:21;;;;;;;8.63;3.67;;;15.80;68.80;;;;;;5094779;28;20024;-70
2022/06/10 01:15:38;;;;;;;7.90;3.90;;;15.70;68.80;;;;;;5093798;28;20055;-70
2022/06/10 01:18:06;;;;;;;6.38;3.55;;;15.80;69.10;;;;;;5060873;28;20049;-70
2022/06/10 01:21:00;;;;;;;9.75;4.28;;;15.60;69.50;;;;;;5094607;28;20048;-70
2022/06/10 01:24:13;;;;;;;6.78;3.92;;;15.60;69.70;;;;;;5094695;28;20020;-70
2022/06/10 01:30:20;;;;;;;7.07;3.88;;;15.50;70.10;;;;;;5094425;28;20039;-70
2022/06/10 01:32:46;;;;;;;7.80;4.35;;;15.60;70.10;;;;;;5094381;28;20016;-70
2022/06/10 01:35:21;;;;;;;8.82;4.15;;;15.60;70.00;;;;;;5094316;28;20078;-70
2022/06/10 01:37:46;;;;;;;7.90;4.18;;;15.60;70.20;;;;;;5094384;28;20025;-70
2022/06/10 01:40:21;;;;;;;9.32;4.10;;;15.60;70.30;;;;;;5094202;28;20044;-70
2022/06/10 01:43:01;;;;;;;8.30;4.53;;;15.60;70.40;;;;;;5094195;28;20063;-71
2022/06/10 01:45:47;;;;;;;9.82;4.15;;;15.60;71.50;;;;;;5094198;28;20024;-71
2022/06/10 01:48:28;;;;;;;6.45;4.45;;;15.60;70.80;;;;;;5093070;28;20044;-70
2022/06/10 01:51:10;;;;;;;8.38;4.90;;;15.50;71.00;;;;;;5094007;28;20090;-70
2022/06/10 01:53:55;;;;;;;11.75;4.45;;;15.50;70.90;;;;;;5094025;28;20020;-70
2022/06/10 01:56:35;;;;;;;8.68;4.25;;;15.50;71.30;;;;;;5093864;28;20025;-70
2022/06/10 01:59:08;;;;;;;7.95;4.47;;;15.40;71.60;;;;;;5094045;28;20080;-70
2022/06/10 02:01:49;;;;;;;10.13;4.82;;;15.40;71.70;;;;;;5093761;28;20051;-70
2022/06/10 02:04:30;;;;;;;10.30;4.85;;;15.30;72.00;;;;;;5093813;28;20087;-70
2022/06/10 02:06:58;;;;;;;10.32;4.95;;;15.30;72.30;;;;;;5093756;28;20012;-70
2022/06/10 02:09:33;;;;;;;9.23;4.45;;;15.30;72.40;;;;;;5093647;28;20503;-70
2022/06/10 02:12:06;;;;;;;10.82;4.78;;;15.30;72.50;;;;;;5092605;28;20029;-71
2022/06/10 02:14:40;;;;;;;6.47;3.95;;;15.30;72.60;;;;;;5093638;28;20080;-70
2022/06/10 02:17:09;;;;;;;10.55;4.32;;;15.40;72.70;;;;;;5093534;28;20028;-70
2022/06/10 02:19:39;;;;;;;9.15;4.35;;;15.30;72.80;;;;;;5093511;28;20033;-70
2022/06/10 02:22:15;;;;;;;10.65;4.50;;;15.30;73.10;;;;;;5093552;28;20020;-70
2022/06/10 02:24:43;;;;;;;9.05;4.35;;;15.30;73.30;;;;;;5093483;28;20082;-70
2022/06/10 02:27:26;;;;;;;8.32;4.45;;;15.30;73.80;;;;;;5093414;28;20031;-70
2022/06/10 02:30:18;;;;;;;10.45;3.92;;;15.30;74.00;;;;;;5093376;28;20077;-70
2022/06/10 02:32:44;;;;;;;10.48;4.30;;;15.40;73.90;;;;;;5083921;28;20040;-70
2022/06/10 02:35:12;;;;;;;7.78;3.53;;;15.40;74.30;;;;;;5092232;28;20028;-71
2022/06/10 02:37:44;;;;;;;8.60;4.20;;;15.30;74.60;;;;;;5093207;28;20039;-71
2022/06/10 02:40:22;;;;;;;8.43;4.20;;;15.40;74.90;;;;;;5093270;28;20029;-70
2022/06/10 02:42:53;;;;;;;12.00;4.40;;;15.30;74.70;;;;;;5093273;28;20031;-70
2022/06/10 02:45:29;;;;;;;9.35;4.40;;;15.20;75.30;;;;;;5093243;28;20020;-70
2022/06/10 02:48:06;;;;;;;8.10;3.78;;;15.20;75.70;;;;;;5093375;28;20023;-71
2022/06/10 02:50:32;;;;;;;9.90;3.70;;;15.20;75.70;;;;;;5093312;28;20024;-70
2022/06/10 02:52:58;;;;;;;11.10;3.72;;;15.20;75.80;;;;;;5093140;28;20028;-70
2022/06/10 02:55:26;;;;;;;11.13;4.03;;;15.20;75.90;;;;;;5092601;28;20230;-71
2022/06/10 03:04:07;;;;;;;11.52;4.50;;;15.30;75.60;;;;;;5093245;28;20040;-70
2022/06/10 03:07:03;;;;;;;13.00;3.95;;;15.40;76.60;;;;;;5093195;28;20044;-70
2022/06/10 03:09:44;;;;;;;11.60;3.83;;;15.40;75.60;;;;;;5093162;28;20040;-70
2022/06/10 03:12:36;;;;;;;16.27;4.85;;;15.40;75.70;;;;;;5093121;28;20021;-70
2022/06/10 03:15:15;;;;;;;10.07;3.83;;;15.40;76.10;;;;;;5069551;28;20086;-70
2022/06/10 03:17:44;;;;;;;16.08;4.78;;;15.40;76.10;;;;;;5092976;28;20023;-70
2022/06/10 03:20:25;;;;;;;12.18;4.63;;;15.40;76.40;;;;;;5092896;28;20021;-70
2022/06/10 03:22:53;;;;;;;13.07;4.25;;;15.30;77.60;;;;;;5092882;28;20021;-70
2022/06/10 03:25:37;;;;;;;11.43;4.03;;;15.30;77.10;;;;;;5092823;28;20024;-70
2022/06/10 03:28:23;;;;;;;15.02;4.70;;;15.30;77.20;;;;;;5092760;28;20498;-71
2022/06/10 03:31:10;;;;;;;12.73;3.92;;;15.20;77.80;;;;;;5092980;28;20024;-70
2022/06/10 03:33:42;;;;;;;10.65;4.20;;;15.20;78.00;;;;;;5092831;28;20021;-71
2022/06/10 03:36:15;;;;;;;14.68;4.68;;;15.20;78.10;;;;;;5092817;28;20033;-70
2022/06/10 03:38:44;;;;;;;14.20;4.60;;;15.20;78.10;;;;;;5092786;28;20082;-71
2022/06/10 03:41:21;;;;;;;11.48;3.95;;;15.20;77.90;;;;;;5092658;28;20017;-70
2022/06/10 03:43:48;;;;;;;19.58;4.22;;;15.20;78.20;;;;;;5092677;28;20020;-70
2022/06/10 03:46:15;;;;;;;16.00;3.78;;;15.20;77.80;;;;;;5092625;28;20029;-70
2022/06/10 03:48:43;;;;;;;11.07;3.85;;;15.20;77.80;;;;;;5092608;28;20024;-71
2022/06/10 03:51:11;;;;;;;13.60;4.30;;;15.20;78.00;;;;;;5092558;28;20028;-70
2022/06/10 03:53:36;;;;;;;9.70;3.92;;;15.20;78.00;;;;;;5092584;28;20035;-70
2022/06/10 03:56:03;;;;;;;13.50;4.10;;;15.20;77.80;;;;;;5092524;28;20025;-70
2022/06/10 03:58:28;;;;;;;9.57;3.55;;;15.20;78.60;;;;;;5092513;28;20512;-70
2022/06/10 04:00:55;;;;;;;13.20;3.97;;;15.20;78.40;;;;;;5092198;28;20071;-70
2022/06/10 04:03:21;;;;;;;12.02;3.85;;;15.20;78.40;;;;;;5092589;28;20029;-71
2022/06/10 04:05:46;;;;;;;10.27;4.20;;;15.20;78.70;;;;;;5092436;28;20043;-70
2022/06/10 04:08:12;;;;;;;12.85;4.25;;;15.20;78.80;;;;;;5094042;28;20039;-70
2022/06/10 04:10:38;;;;;;;13.27;3.95;;;15.30;78.60;;;;;;5095972;28;20092;-70
2022/06/10 04:13:03;;;;;;;15.07;3.72;;;15.30;78.70;;;;;;5095923;28;20096;-70
2022/06/10 04:15:29;;;;;;;13.10;4.32;;;15.30;78.90;;;;;;5095875;28;20043;-70
2022/06/10 04:17:56;;;;;;;12.63;3.50;;;15.30;79.00;;;;;;5095805;28;20028;-71
2022/06/10 04:20:34;;;;;;;10.52;3.88;;;15.40;78.90;;;;;;5095926;28;20009;-71
2022/06/10 04:23:01;;;;;;;11.68;3.20;;;15.50;78.90;;;;;;5095789;28;20020;-71
2022/06/10 04:25:27;;;;;;;15.07;3.72;;;15.60;79.00;;;;;;5095715;28;20028;-70
2022/06/10 04:27:54;;;;;;;14.73;3.88;;;15.60;79.20;;;;;;5095588;28;20024;-71
2022/06/10 04:30:28;;;;;;;10.70;3.10;;;15.70;79.20;;;;;;5095583;28;20463;-71
2022/06/10 04:32:54;;;;;;;11.02;3.88;;;15.70;79.10;;;;;;5095585;28;20025;-71
2022/06/10 04:35:21;;;;;;;11.75;3.33;;;15.70;79.20;;;;;;5095527;28;20025;-71
2022/06/10 04:37:48;;;;;;;12.70;3.83;;;15.80;79.40;;;;;;5095432;28;20031;-71
2022/06/10 04:40:18;;;;;;;9.65;4.03;;;15.80;79.70;;;;;;5095439;28;20047;-71
2022/06/10 04:42:45;;;;;;;11.23;4.60;;;15.70;79.70;;;;;;5095389;28;20026;-71
2022/06/10 04:45:11;;;;;;;12.25;4.20;;;15.80;80.10;;;;;;5095317;28;20028;-71
2022/06/10 04:47:36;;;;;;;13.10;3.85;;;15.80;79.80;;;;;;5095199;28;20024;-71
2022/06/10 04:50:04;;;;;;;10.70;3.53;;;15.80;79.70;;;;;;5095256;28;20391;-71
2022/06/10 04:52:30;;;;;;;7.90;3.70;;;15.70;79.40;;;;;;5095210;28;20059;-71
2022/06/10 04:54:56;;;;;;;9.98;3.88;;;15.80;79.30;;;;;;5095172;28;20029;-71
2022/06/10 04:57:22;;;;;;;12.70;4.32;;;15.80;79.10;;;;;;5095026;28;20067;-71
2022/06/10 04:59:47;;;;;;;9.13;3.55;;;15.80;79.30;;;;;;5093869;28;20036;-71
2022/06/10 05:02:13;;;;;;;10.57;3.97;;;15.80;79.60;;;;;;5095071;28;20029;-71
2022/06/10 05:04:39;;;;;;;11.18;3.80;;;15.80;79.60;;;;;;5095103;28;20028;-71
2022/06/10 05:07:05;;;;;;;12.68;4.93;;;15.80;80.10;;;;;;5094072;28;20056;-71
2022/06/10 05:09:30;;;;;;;10.32;4.10;;;15.80;80.30;;;;;;5094866;28;20060;-71
2022/06/10 05:11:56;;;;;;;8.30;4.40;;;15.90;80.30;;;;;;5094820;28;20118;-71
2022/06/10 05:14:22;;;;;;;9.63;4.68;;;15.90;80.20;;;;;;5094751;28;20071;-71
2022/06/10 05:16:47;;;;;;;8.68;4.20;;;15.90;80.10;;;;;;5094611;28;20047;-71
2022/06/10 05:19:14;;;;;;;10.32;4.35;;;15.90;80.00;;;;;;5094144;28;20020;-71
2022/06/10 05:21:39;;;;;;;12.07;4.38;;;15.90;79.80;;;;;;5094609;28;20021;-71
2022/06/10 05:24:05;;;;;;;10.02;4.40;;;15.90;80.10;;;;;;5094702;28;20041;-71
2022/06/10 05:26:32;;;;;;;10.77;3.83;;;16.00;79.90;;;;;;5094512;28;20043;-71
2022/06/10 05:29:02;;;;;;;10.65;3.97;;;16.00;79.70;;;;;;5094431;28;20021;-71
2022/06/10 05:31:27;;;;;;;13.32;3.75;;;16.00;79.80;;;;;;5094418;28;20456;-71
2022/06/10 05:36:38;;;;;;;10.48;4.70;;;16.00;80.00;;;;;;5094360;28;20047;-70
2022/06/10 05:39:06;;;;;;;10.18;5.00;;;16.00;79.90;;;;;;5094311;28;20033;-71
2022/06/10 05:44:16;;;;;;;9.15;4.70;;;16.10;80.50;;;;;;5094218;28;20043;-71
2022/06/10 05:46:43;;;;;;;10.45;4.65;;;16.10;81.10;;;;;;5094219;28;20384;-71
2022/06/10 05:49:09;;;;;;;10.30;4.43;;;16.10;81.20;;;;;;5094070;28;20031;-70
2022/06/10 05:51:35;;;;;;;10.43;4.82;;;16.10;81.30;;;;;;5094024;28;20028;-71
2022/06/10 05:54:01;;;;;;;7.55;4.03;;;16.10;81.40;;;;;;5093063;28;20028;-71
2022/06/10 05:56:27;;;;;;;9.55;4.95;;;16.20;81.70;;;;;;5092793;28;20036;-71
2022/06/10 05:58:53;;;;;;;13.30;4.60;;;16.20;81.10;;;;;;5093896;28;20035;-71
2022/06/10 06:01:18;;;;;;;14.50;4.70;;;16.20;81.30;;;;;;5093551;28;20076;-71
2022/06/10 06:03:44;;;;;;;10.48;4.68;;;16.30;81.60;;;;;;5092830;28;20030;-71
2022/06/10 06:06:10;;;;;;;10.63;4.60;;;16.30;81.20;;;;;;5092778;28;20032;-71
2022/06/10 06:08:36;;;;;;;7.43;4.60;;;16.40;81.10;;;;;;5093832;28;20025;-71
2022/06/10 06:11:02;;;;;;;9.43;4.25;;;16.40;80.50;;;;;;5093681;28;20036;-71
2022/06/10 06:13:27;;;;;;;14.13;4.50;;;16.40;80.60;;;;;;5093645;28;20036;-71
2022/06/10 06:15:53;;;;;;;8.57;3.88;;;16.40;80.90;;;;;;5092659;28;20031;-71
2022/06/10 06:18:19;;;;;;;7.95;4.07;;;16.40;81.40;;;;;;5093492;28;20097;-71
2022/06/10 06:20:45;;;;;;;12.50;5.47;;;16.40;81.20;;;;;;5092536;28;20377;-71
2022/06/10 06:23:11;;;;;;;9.45;3.40;;;16.40;81.80;;;;;;5092514;28;20040;-71
2022/06/10 06:25:37;;;;;;;8.85;4.05;;;16.50;82.00;;;;;;5093457;28;20017;-71
2022/06/10 06:28:04;;;;;;;8.00;3.72;;;16.50;82.20;;;;;;5093325;28;20028;-71
2022/06/10 06:30:33;;;;;;;9.15;4.22;;;16.50;82.40;;;;;;5092646;28;20017;-71
2022/06/10 06:33:03;;;;;;;9.82;3.67;;;16.60;82.70;;;;;;5093347;28;20046;-72
2022/06/10 06:35:30;;;;;;;8.55;3.60;;;16.60;82.20;;;;;;5093419;28;20379;-71
2022/06/10 06:37:56;;;;;;;6.80;3.47;;;16.70;82.80;;;;;;5093305;28;20033;-71
2022/06/10 06:40:22;;;;;;;7.82;3.03;;;16.70;82.30;;;;;;5093260;28;20025;-71
2022/06/10 06:42:48;;;;;;;6.35;3.25;;;16.90;81.60;;;;;;5093263;28;20048;-71
2022/06/10 06:45:15;;;;;;;9.57;3.50;;;16.90;82.00;;;;;;5093392;28;20055;-71
2022/06/10 06:47:41;;;;;;;7.70;2.58;;;17.00;81.50;;;;;;5093203;28;20020;-71
2022/06/10 06:50:08;;;;;;;9.35;3.17;;;17.00;81.40;;;;;;5092220;28;20111;-71
2022/06/10 06:52:34;;;;;;;9.90;3.10;;;17.10;81.60;;;;;;5093099;28;20046;-71
2022/06/10 06:55:00;;;;;;;8.95;3.35;;;17.20;81.30;;;;;;5093138;28;20028;-71
2022/06/10 06:57:28;;;;;;;9.45;2.75;;;17.20;81.60;;;;;;5093050;28;20056;-71
2022/06/10 06:59:54;;;;;;;9.20;2.75;;;17.30;80.40;;;;;;5092866;28;20048;-71
2022/06/10 07:02:22;;;;;;;7.90;2.55;;;17.30;79.70;;;;;;5092983;28;20349;-72
2022/06/10 07:04:48;;;;;;;5.22;2.20;;;17.30;79.70;;;;;;5093048;28;20032;-71
2022/06/10 07:07:13;;;;;;;7.68;2.83;;;17.40;78.60;;;;;;5093034;28;20040;-71
2022/06/10 07:09:39;;;;;;;6.30;2.05;;;17.40;78.80;;;;;;5093009;28;20029;-71
2022/06/10 07:12:05;;;;;;;9.10;2.30;;;17.30;78.10;;;;;;5092048;28;20029;-71
2022/06/10 07:14:30;;;;;;;4.53;2.45;;;17.40;79.00;;;;;;5093071;28;20074;-71
2022/06/10 07:16:56;;;;;;;6.97;2.22;;;17.50;79.70;;;;;;5092976;28;20033;-71
2022/06/10 07:19:22;;;;;;;5.63;2.42;;;17.50;78.70;;;;;;5092878;28;20086;-71
2022/06/10 07:21:48;;;;;;;9.30;3.03;;;17.50;78.70;;;;;;5092913;28;20032;-71
2022/06/10 07:24:13;;;;;;;8.20;3.28;;;17.50;78.70;;;;;;5092843;28;20055;-71
2022/06/10 07:26:39;;;;;;;8.27;2.80;;;17.50;78.60;;;;;;5092810;28;20028;-71
2022/06/10 07:29:06;;;;;;;6.60;2.22;;;17.60;78.00;;;;;;5092733;28;20021;-71
2022/06/10 07:31:33;;;;;;;4.30;2.08;;;17.70;78.30;;;;;;5092771;28;20017;-71
2022/06/10 07:33:58;;;;;;;6.10;2.30;;;17.70;77.70;;;;;;5092718;28;20020;-71
2022/06/10 07:36:26;;;;;;;9.35;2.67;;;17.70;76.70;;;;;;5092747;28;20081;-71
2022/06/10 07:38:53;;;;;;;6.55;2.72;;;17.80;77.40;;;;;;5092690;28;20021;-71
2022/06/10 07:44:03;;;;;;;7.55;3.25;;;17.80;77.40;;;;;;5096619;28;20082;-71
2022/06/10 07:46:30;;;;;;;5.35;2.50;;;17.80;76.60;;;;;;5096589;28;20025;-71
2022/06/10 07:48:55;;;;;;;4.35;2.40;;;17.90;76.90;;;;;;5096457;28;20029;-71
2022/06/10 07:51:21;;;;;;;5.40;2.60;;;17.90;76.50;;;;;;5096320;28;20036;-71
2022/06/10 07:53:47;;;;;;;5.35;3.03;;;18.10;75.80;;;;;;5096325;28;20111;-71
2022/06/10 07:56:15;;;;;;;7.70;2.83;;;18.10;76.70;;;;;;5096264;28;20017;-71
2022/06/10 07:58:42;;;;;;;6.15;2.83;;;18.20;76.20;;;;;;5096134;28;20020;-71
2022/06/10 08:01:08;;;;;;;9.48;4.32;;;18.20;76.80;;;;;;5095960;28;20046;-71
2022/06/10 08:03:34;;;;;;;8.50;3.70;;;18.30;76.90;;;;;;5096132;28;20111;-71
2022/06/10 08:05:59;;;;;;;9.75;3.33;;;18.50;77.00;;;;;;5096094;28;20020;-71
2022/06/10 08:08:26;;;;;;;7.82;2.97;;;18.50;76.50;;;;;;5096054;28;20029;-70
2022/06/10 08:10:52;;;;;;;7.53;3.22;;;18.60;76.00;;;;;;5095973;28;20020;-70
2022/06/10 08:13:17;;;;;;;6.97;3.67;;;18.60;74.70;;;;;;5095961;28;20038;-70
2022/06/10 08:15:45;;;;;;;6.25;2.97;;;18.60;75.80;;;;;;5095902;28;20055;-70
2022/06/10 08:18:14;;;;;;;5.75;2.63;;;18.70;74.90;;;;;;5095794;28;20028;-71
2022/06/10 08:23:27;;;;;;;7.60;3.03;;;18.90;74.50;;;;;;5096034;28;20084;-71
2022/06/10 08:25:54;;;;;;;9.60;2.47;;;18.90;73.30;;;;;;5095751;28;20030;-71
2022/06/10 08:28:21;;;;;;;5.72;2.42;;;18.90;73.40;;;;;;5095632;28;20085;-71
2022/06/10 08:30:47;;;;;;;5.32;2.30;;;19.00;74.50;;;;;;5095667;28;20036;-71
2022/06/10 08:33:13;;;;;;;6.30;2.55;;;19.10;73.90;;;;;;5095635;28;20084;-70
2022/06/10 08:35:40;;;;;;;5.88;2.22;;;19.10;74.30;;;;;;5095585;28;20025;-71
2022/06/10 08:38:11;;;;;;;7.57;2.67;;;19.20;73.50;;;;;;5095462;28;20036;-71
2022/06/10 08:41:06;;;;;;;8.68;3.00;;;19.30;73.60;;;;;;5095527;28;20025;-71
2022/06/10 08:44:11;;;;;;;5.68;2.55;;;19.30;74.30;;;;;;5094467;28;20022;-71
2022/06/10 08:46:53;;;;;;;6.97;2.20;;;19.40;74.70;;;;;;5095397;28;20024;-71
2022/06/10 08:50:12;;;;;;;3.37;1.87;;;19.30;72.40;;;;;;5095295;28;20020;-71
2022/06/10 08:52:58;;;;;;;10.35;2.40;;;19.40;71.40;;;;;;5061301;28;20047;-71
2022/06/10 08:55:48;;;;;;;2.60;1.52;;;19.40;72.10;;;;;;5095182;28;20134;-71
2022/06/10 08:58:23;;;;;;;8.85;1.85;;;19.40;72.60;;;;;;5095217;28;20080;-70
2022/06/10 09:00:51;;;;;;;5.03;1.80;;;19.50;70.60;;;;;;5094896;28;20083;-71
2022/06/10 09:03:29;;;;;;;4.55;2.10;;;19.40;71.90;;;;;;5095042;28;20046;-71
2022/06/10 09:06:01;;;;;;;9.50;2.33;;;19.50;71.00;;;;;;5095148;28;20024;-71
2022/06/10 09:08:41;;;;;;;3.75;2.20;;;19.50;72.50;;;;;;5095094;28;20036;-71
2022/06/10 09:11:28;;;;;;;5.03;1.98;;;19.60;71.70;;;;;;5094908;28;20031;-71
2022/06/10 09:14:09;;;;;;;5.05;1.58;;;19.60;71.00;;;;;;5094857;28;20024;-71
2022/06/10 09:17:09;;;;;;;7.43;2.17;;;19.60;68.80;;;;;;5094785;28;20024;-71
2022/06/10 09:19:40;;;;;;;6.88;2.15;;;19.70;71.50;;;;;;5094767;28;20027;-71
2022/06/10 09:22:14;;;;;;;6.13;2.15;;;19.80;72.10;;;;;;5094631;28;20073;-71
2022/06/10 09:25:11;;;;;;;5.45;2.10;;;19.80;71.80;;;;;;5093576;28;20025;-71
2022/06/10 09:27:44;;;;;;;6.50;2.10;;;19.80;69.80;;;;;;5094752;28;20024;-71
2022/06/10 09:30:14;;;;;;;7.18;2.08;;;19.90;68.80;;;;;;5094517;28;20025;-71
2022/06/10 09:32:51;;;;;;;7.75;2.00;;;20.00;68.60;;;;;;5094425;28;20050;-71
2022/06/10 09:35:28;;;;;;;5.78;2.00;;;19.90;68.80;;;;;;5094572;28;20091;-71
2022/06/10 09:38:15;;;;;;;11.07;2.50;;;19.90;69.10;;;;;;5094318;28;20032;-71
2022/06/10 09:41:13;;;;;;;7.82;2.28;;;20.10;69.10;;;;;;5094301;28;20026;-71
2022/06/10 09:44:01;;;;;;;8.45;2.10;;;20.20;68.60;;;;;;5094421;28;20028;-70
2022/06/10 09:46:39;;;;;;;6.75;1.90;;;20.40;68.40;;;;;;5094337;28;20380;-71
2022/06/10 09:49:14;;;;;;;5.32;2.10;;;20.50;67.20;;;;;;5094281;28;20021;-70
2022/06/10 09:52:07;;;;;;;7.65;2.40;;;20.40;67.40;;;;;;5093116;28;20029;-71
2022/06/10 09:54:45;;;;;;;4.93;2.47;;;20.40;67.50;;;;;;5094091;28;20021;-71
2022/06/10 09:57:47;;;;;;;4.90;1.92;;;20.60;68.10;;;;;;5093913;28;20052;-71
2022/06/10 10:00:18;;;;;;;8.20;2.63;;;20.60;66.50;;;;;;5093944;28;20376;-71
2022/06/10 10:03:18;;;;;;;6.15;2.20;;;20.70;67.20;;;;;;5093977;28;20383;-71
2022/06/10 10:06:17;;;;;;;3.78;2.33;;;20.70;66.60;;;;;;5093801;28;20028;-71
2022/06/10 10:08:58;;;;;;;5.53;2.20;;;20.70;65.80;;;;;;5093998;28;20026;-71
2022/06/10 10:11:36;;;;;;;7.25;2.55;;;20.80;65.80;;;;;;5093795;28;20040;-71
2022/06/10 10:14:41;;;;;;;9.05;2.60;;;21.00;67.80;;;;;;5093742;28;20029;-71
2022/06/10 10:17:32;;;;;;;6.68;2.00;;;21.30;67.20;;;;;;5093897;28;20024;-71
2022/06/10 10:20:06;;;;;;;4.57;2.10;;;21.30;65.10;;;;;;5085321;28;20044;-71
2022/06/10 10:22:59;;;;;;;8.23;2.20;;;21.10;65.50;;;;;;5093685;28;20067;-71
2022/06/10 10:25:25;;;;;;;6.35;2.30;;;21.00;66.00;;;;;;5093610;28;20048;-71
2022/06/10 10:27:53;;;;;;;7.05;2.20;;;21.00;65.70;;;;;;5093431;28;20028;-71
2022/06/10 10:30:42;;;;;;;6.60;2.95;;;21.10;66.80;;;;;;5093360;28;20028;-71
2022/06/10 10:33:14;;;;;;;6.40;2.63;;;21.10;65.90;;;;;;5093466;28;20032;-71
2022/06/10 10:35:44;;;;;;;6.75;2.65;;;21.10;66.60;;;;;;5093479;28;20020;-71
2022/06/10 10:38:30;;;;;;;8.13;2.90;;;21.00;66.50;;;;;;5093434;28;20051;-71
2022/06/10 10:40:55;;;;;;;9.30;3.03;;;21.00;66.50;;;;;;5093494;28;20024;-71
2022/06/10 10:43:30;;;;;;;15.60;3.25;;;21.00;65.70;;;;;;5093311;28;20075;-71
2022/06/10 10:46:06;;;;;;;6.22;2.83;;;21.00;66.40;;;;;;5093426;28;20013;-71
2022/06/10 10:48:45;;;;;;;5.13;2.97;;;21.10;67.80;;;;;;5092213;28;20096;-71
2022/06/10 10:51:11;;;;;;;7.82;3.53;;;21.20;68.70;;;;;;5093260;28;20024;-71
2022/06/10 10:53:41;;;;;;;8.85;3.85;;;21.30;68.60;;;;;;5092119;28;20031;-71
2022/06/10 10:56:09;;;;;;;7.68;3.92;;;21.40;66.70;;;;;;5093186;28;20052;-71
2022/06/10 10:58:40;;;;;;;9.35;5.18;;;21.40;67.60;;;;;;5093090;28;20111;-71
2022/06/10 11:01:43;;;;;;;10.45;6.20;;;21.50;67.00;;;;;;5092991;28;20032;-71
2022/06/10 11:04:01;;;;;;;10.65;5.13;;;21.50;66.60;;;;;;5093010;28;20088;-71
2022/06/10 11:06:36;;;;;;;11.30;4.65;;;21.40;66.60;;;;;;5093123;28;20028;-71
2022/06/10 11:09:23;;;;;;;8.35;3.72;;;21.50;66.90;;;;;;5093122;28;20027;-71
2022/06/10 11:11:51;;;;;;;7.35;4.10;;;21.70;66.80;;;;;;5093132;28;20025;-70
2022/06/10 11:14:24;;;;;;;7.65;4.07;;;21.90;66.00;;;;;;5092988;28;20364;-71
2022/06/10 11:17:15;;;;;;;8.88;3.78;;;21.90;66.10;;;;;;5094233;28;20028;-71
2022/06/10 11:20:01;;;;;;;9.27;3.97;;;21.90;64.50;;;;;;5097130;28;20383;-71
2022/06/10 11:22:28;;;;;;;8.40;4.10;;;21.90;66.00;;;;;;5096986;28;20027;-71
2022/06/10 11:25:22;;;;;;;11.95;4.60;;;21.80;65.40;;;;;;5096959;28;20087;-71
2022/06/10 11:27:48;;;;;;;11.68;5.13;;;21.80;66.00;;;;;;5089504;28;20041;-71
2022/06/10 11:30:14;;;;;;;9.63;4.45;;;21.80;66.60;;;;;;5096848;28;20037;-71
2022/06/10 11:32:45;;;;;;;8.75;4.10;;;21.80;65.90;;;;;;5096761;28;20103;-71
2022/06/10 11:35:32;;;;;;;5.88;3.78;;;21.80;64.60;;;;;;5096797;28;20093;-71
2022/06/10 11:38:26;;;;;;;10.05;4.38;;;21.60;63.60;;;;;;5096678;28;20017;-71
2022/06/10 11:41:13;;;;;;;9.57;3.50;;;21.60;65.30;;;;;;5093490;28;20033;-71
2022/06/10 11:43:46;;;;;;;11.23;4.18;;;21.50;65.70;;;;;;5096592;28;20027;-71
2022/06/10 11:46:30;;;;;;;;;;;21.50;66.70;;;;;;5096992;28;20058;-71
2022/06/10 11:49:40;;;;;;;10.63;4.00;;;21.50;68.20;;;;;;5096458;28;19904;-71
2022/06/10 11:52:26;;;;;;;9.00;4.05;;;21.40;67.70;;;;;;5089199;28;20063;-71
2022/06/10 11:55:10;;;;;;;8.77;3.90;;;21.50;67.50;;;;;;5096376;28;20531;-71
2022/06/10 12:00:41;;;;;;;8.63;3.83;;;21.60;66.80;;;;;;5096323;28;20058;-71
2022/06/10 12:03:16;;;;;;;7.30;3.90;;;21.60;66.30;;;;;;5096296;28;20029;-71
2022/06/10 12:05:54;;;;;;;9.32;4.03;;;21.60;67.20;;;;;;5096332;28;20070;-71
2022/06/10 12:08:54;;;;;;;11.93;4.07;;;21.80;68.10;;;;;;5096119;28;20055;-71
2022/06/10 12:12:01;;;;;;;8.48;4.53;;;22.10;68.70;;;;;;5096057;28;20021;-71
2022/06/10 12:14:38;;;;;;;10.05;5.18;;;22.40;66.90;;;;;;5092872;28;20375;-71
2022/06/10 12:17:15;;;;;;;10.82;3.67;;;22.50;67.20;;;;;;5095921;28;20068;-71
2022/06/10 12:20:10;;;;;;;10.15;4.68;;;22.70;66.00;;;;;;5096073;28;20080;-71
2022/06/10 12:22:37;;;;;;;10.15;3.58;;;22.90;66.40;;;;;;5087578;28;20084;-71
2022/06/10 12:25:23;;;;;;;6.90;3.72;;;23.00;65.40;;;;;;5095829;28;20021;-71
2022/06/10 12:27:56;;;;;;;10.02;4.10;;;23.10;65.10;;;;;;5095016;28;20024;-70
2022/06/10 12:30:37;;;;;;;9.52;4.22;;;23.00;63.80;;;;;;5095528;28;20092;-71
2022/06/10 12:33:15;;;;;;;10.18;3.50;;;23.00;62.50;;;;;;5095707;28;20103;-71
2022/06/10 12:35:43;;;;;;;9.43;3.63;;;22.90;62.60;;;;;;5095790;28;20017;-71
2022/06/10 12:38:25;;;;;;;9.68;4.30;;;22.90;62.20;;;;;;5095663;28;20034;-71
2022/06/10 12:40:59;;;;;;;8.90;4.25;;;22.80;63.60;;;;;;5095544;28;20024;-71
2022/06/10 12:43:30;;;;;;;11.82;3.83;;;22.80;64.20;;;;;;5095670;28;20024;-71
2022/06/10 12:46:18;;;;;;;11.20;3.63;;;22.80;64.40;;;;;;5095464;28;20021;-70
2022/06/10 12:48:47;;;;;;;9.57;3.70;;;22.90;63.50;;;;;;5095221;28;20032;-71
2022/06/10 12:51:12;;;;;;;6.25;3.10;;;23.10;65.50;;;;;;5095332;28;20031;-69
2022/06/10 12:53:45;;;;;;;8.00;2.97;;;23.10;63.20;;;;;;5095284;28;20032;-69
2022/06/10 12:56:26;;;;;;;7.97;3.72;;;23.20;62.10;;;;;;5095148;28;20097;-69
2022/06/10 12:59:05;;;;;;;8.27;4.30;;;23.30;63.50;;;;;;5095101;28;20118;-70
2022/06/10 13:01:30;;;;;;;9.40;3.70;;;23.50;62.90;;;;;;5094911;28;20107;-69
2022/06/10 13:04:26;;;;;;;6.63;2.83;;;23.50;62.10;;;;;;5094069;28;20046;-70
2022/06/10 13:07:00;;;;;;;8.07;3.20;;;23.40;59.70;;;;;;5081665;28;20059;-71
2022/06/10 13:09:38;;;;;;;5.93;3.00;;;23.20;60.20;;;;;;5094984;28;20016;-71
2022/06/10 13:12:06;;;;;;;7.43;3.13;;;23.10;59.50;;;;;;5094908;28;20080;-71
2022/06/10 13:14:33;;;;;;;7.28;2.97;;;23.00;59.40;;;;;;5094812;28;20025;-70
2022/06/10 13:16:58;;;;;;;8.27;3.53;;;23.00;61.40;;;;;;5094703;28;20017;-70
2022/06/10 13:19:43;;;;;;;7.28;3.72;;;23.20;64.00;;;;;;5094723;28;20027;-69
2022/06/10 13:22:21;;;;;;;10.07;3.53;;;23.50;61.40;;;;;;5094680;28;20024;-69
2022/06/10 13:24:52;;;;;;;11.45;3.30;;;23.60;59.80;;;;;;5094620;28;20028;-70
2022/06/10 13:27:28;;;;;;;7.75;3.30;;;23.40;60.20;;;;;;5094617;28;20036;-69
2022/06/10 13:29:57;;;;;;;5.15;2.75;;;23.30;58.60;;;;;;5094494;28;20426;-69
2022/06/10 13:32:23;;;;;;;7.40;3.92;;;23.20;60.30;;;;;;5094438;28;20032;-69
2022/06/10 13:34:57;;;;;;;5.10;3.20;;;23.30;61.70;;;;;;5094344;28;20036;-69
2022/06/10 13:37:26;;;;;;;6.88;3.30;;;23.50;61.60;;;;;;5093042;28;20059;-69